Atlantic City, NJ

7:17 AM EST on January 18, 2017 (GMT -0500)
MATLN4 | | Change Station
Active Advisory: Small Craft Advisory

Elev 0 ft 39.38 °N, 74.42 °W | Updated 8 minutes ago

Fog
Fog
45.0 °F
Feels Like 45 °F
N
2.0
Wind Variable Wind from NNW
Gusts 4.0 mph

Today
High -- | Low -- °F
--% Chance of Precip.
Yesterday
High -- | Low -- °F
Precip. -- in
Pressure 29.87 in
Visibility 0.5 miles
Clouds Overcast 200 ft
Windchill 45 °F
Dew Point 42 °F
Humidity 92%
Rainfall 0.15 in
Snow Depth Not available.
7:14 AM 5:02 PM
Waning Gibbous, 64% visible
SPECI KACY 181209Z 32005KT 1/2SM FG OVC002 06/06 A2987 RMK AO2 TWR VIS 2 T00610056
Pressure 29.87 in
Visibility 0.5 miles
Clouds Overcast 200 ft
Windchill 45 °F
Dew Point 42 °F
Humidity 92%
Rainfall 0.15 in
Snow Depth Not available.
7:14 AM 5:02 PM
Waning Gibbous, 64% visible
SPECI KACY 181209Z 32005KT 1/2SM FG OVC002 06/06 A2987 RMK AO2 TWR VIS 2 T00610056

Get Your Daily Forecast Email!

Thanks for signing up!

Be on the lookout for a verification email in your inbox.

You'll start receiving the daily forecast at 8 AM.

×

10-Day Weather Forecast

Almanac

Astronomy

Jan. 18, 2017 Rise Set
Actual Time
Civil Twilight
Nautical Twilight
Astronomical Twilight
Moon
Length of Visible Light
Length of Day
Tomorrow will be .
, % of the Moon is Illuminated

Today's Extremes

State Highs State Lows

Community

WunderPhotos

Upload Photos

1,962,540 photos uploaded!

WunderBlog® & News

Nearby

Air Quality

  Air Quality AQ Index Pollutant
Not available.

Snow Depth

Station Depth Elevation

Earthquake Activity

City Distance Mag. Time & Date
Minimum magnitude displayed is 2.5.

Coastal Water Temperatures

Place Temperature

Stations

Nearby Weather Stations

Station Location Temp. Windchill Dew Point Humidity Wind Precip. Elev Updated Type
                   

Watches & Warnings

Small Craft Advisory
Issued: 3:08 AM EST Jan. 18, 2017 – National Weather Service

... Small Craft Advisory in effect from 1 PM this afternoon to
9 PM EST this evening...

The National Weather Service in Mount Holly has issued a Small
Craft Advisory... which is in effect from 1 PM this afternoon to
9 PM EST this evening.

* Location... the southern New Jersey and Delaware Atlantic
coastal waters.

* Winds... northwest 10 to 15 kt with gusts up to 25 kt.

* Seas... 2 to 4 feet.

* Timing... strongest winds should occur between 4 PM and 7 PM.

Precautionary/preparedness actions...

A Small Craft Advisory means that wind speeds of 25 to 33 knots
are expected to produce hazardous wave conditions to small craft.
Inexperienced mariners... especially those operating smaller
vessels should avoid navigating in these conditions.